createdAt,value
2024-01-09T00:00:14.444Z,82.40
2024-01-09T00:00:24.557Z,81.80
2024-01-09T00:00:34.548Z,87.60
2024-01-09T00:00:44.473Z,85.10
2024-01-09T00:00:54.568Z,87.70
2024-01-09T00:01:04.527Z,87.00
2024-01-09T00:01:24.518Z,84.60
2024-01-09T00:01:34.444Z,76.90
2024-01-09T00:01:45.097Z,76.50
2024-01-09T00:01:54.458Z,80.10
2024-01-09T00:02:04.618Z,89.10
2024-01-09T00:02:14.457Z,85.40
2024-01-09T00:02:34.474Z,74.40
2024-01-09T00:02:44.510Z,72.80
2024-01-09T00:02:54.497Z,76.60
2024-01-09T00:03:04.625Z,80.60
2024-01-09T00:03:15.322Z,85.10
2024-01-09T00:03:24.471Z,75.20
2024-01-09T00:03:44.451Z,60.60
2024-01-09T00:03:54.613Z,65.80
2024-01-09T00:04:04.546Z,65.40
2024-01-09T00:04:14.464Z,86.70
2024-01-09T00:04:24.513Z,88.00
2024-01-09T00:04:34.525Z,94.00
2024-01-09T00:04:54.479Z,80.20
2024-01-09T00:05:04.583Z,71.20
2024-01-09T00:05:14.466Z,78.20
2024-01-09T00:05:24.633Z,78.00
2024-01-09T00:05:34.596Z,74.40
2024-01-09T00:05:44.586Z,71.20
2024-01-09T00:05:54.636Z,69.90
2024-01-09T00:06:04.803Z,85.90
2024-01-09T00:06:24.606Z,86.00
2024-01-09T00:06:34.473Z,69.50
2024-01-09T00:06:44.476Z,65.50
2024-01-09T00:06:54.485Z,78.80
2024-01-09T00:07:04.423Z,88.10
2024-01-09T00:07:14.440Z,94.80
2024-01-09T00:07:25.206Z,81.10
2024-01-09T00:07:34.416Z,79.00
2024-01-09T00:07:54.613Z,83.20
2024-01-09T00:08:05.168Z,89.00
2024-01-09T00:08:14.560Z,94.70
2024-01-09T00:08:24.528Z,88.30
2024-01-09T00:08:34.503Z,81.30
2024-01-09T00:08:44.481Z,75.40
2024-01-09T00:09:04.456Z,87.80
2024-01-09T00:09:14.411Z,95.40
2024-01-09T00:09:27.116Z,81.30
2024-01-09T00:09:34.435Z,86.70
2024-01-09T00:09:44.404Z,85.00
2024-01-09T00:09:54.556Z,90.20
2024-01-09T00:10:14.494Z,80.40
2024-01-09T00:10:25.122Z,75.30
2024-01-09T00:10:34.396Z,79.80
2024-01-09T00:10:44.402Z,79.60
2024-01-09T00:10:54.446Z,84.70
2024-01-09T00:11:04.473Z,89.10
2024-01-09T00:11:24.571Z,94.20
2024-01-09T00:11:34.480Z,88.80
2024-01-09T00:11:44.487Z,91.20
2024-01-09T00:11:54.405Z,81.10
2024-01-09T00:12:04.390Z,74.70
2024-01-09T00:12:15.072Z,65.10
2024-01-09T00:12:34.389Z,68.70
2024-01-09T00:12:44.394Z,69.10
2024-01-09T00:12:54.468Z,69.20
2024-01-09T00:13:04.407Z,72.20
2024-01-09T00:13:14.418Z,68.90
2024-01-09T00:13:24.491Z,65.90
2024-01-09T00:13:34.421Z,70.10
2024-01-09T00:13:54.421Z,75.60
2024-01-09T00:14:04.446Z,72.80
2024-01-09T00:14:14.430Z,78.00
2024-01-09T00:14:24.567Z,76.50
2024-01-09T00:14:34.425Z,75.60
2024-01-09T00:14:44.429Z,79.60
2024-01-09T00:14:54.508Z,78.70
2024-01-09T00:15:04.413Z,79.50
2024-01-09T00:15:14.412Z,85.00
2024-01-09T00:15:34.403Z,92.50
2024-01-09T00:15:44.410Z,87.40
2024-01-09T00:15:55.061Z,85.80
2024-01-09T00:16:04.423Z,83.70
2024-01-09T00:16:14.543Z,79.00
2024-01-09T00:16:24.484Z,78.10
2024-01-09T00:16:44.375Z,72.40
2024-01-09T00:16:54.466Z,80.60
2024-01-09T00:17:04.452Z,86.60
2024-01-09T00:17:14.418Z,89.40
2024-01-09T00:17:24.465Z,87.20
2024-01-09T00:17:34.434Z,85.30
2024-01-09T00:17:44.462Z,86.20
2024-01-09T00:18:04.676Z,89.00
2024-01-09T00:18:14.797Z,82.30
2024-01-09T00:18:25.119Z,76.30
2024-01-09T00:18:34.537Z,68.80
2024-01-09T00:18:44.509Z,75.20
2024-01-09T00:18:54.822Z,79.80
2024-01-09T00:19:14.570Z,89.40
2024-01-09T00:19:24.545Z,85.10
2024-01-09T00:19:34.859Z,76.60
2024-01-09T00:19:44.504Z,76.40
2024-01-09T00:19:54.518Z,79.80
2024-01-09T00:20:04.507Z,81.00
2024-01-09T00:20:24.520Z,82.80
2024-01-09T00:20:35.092Z,89.10
2024-01-09T00:20:44.421Z,80.20
2024-01-09T00:20:54.400Z,83.30
2024-01-09T00:21:04.387Z,83.20
2024-01-09T00:21:14.374Z,88.40
2024-01-09T00:21:34.381Z,81.50
2024-01-09T00:21:44.366Z,82.00
2024-01-09T00:21:54.487Z,88.60
2024-01-09T00:22:04.390Z,82.60
2024-01-09T00:22:14.372Z,78.80
2024-01-09T00:22:24.360Z,75.70
2024-01-09T00:22:44.394Z,86.60
2024-01-09T00:22:54.471Z,91.20
2024-01-09T00:23:04.416Z,91.10
2024-01-09T00:23:14.483Z,86.80
2024-01-09T00:23:24.409Z,84.50
2024-01-09T00:23:34.391Z,82.40
2024-01-09T00:23:44.522Z,84.10
2024-01-09T00:23:54.413Z,91.70
2024-01-09T00:24:04.404Z,87.90
2024-01-09T00:24:14.385Z,90.40
2024-01-09T00:24:34.350Z,81.80
2024-01-09T00:24:44.386Z,84.40
2024-01-09T00:24:54.533Z,94.30
2024-01-09T00:25:04.399Z,89.00
2024-01-09T00:25:14.345Z,92.40
2024-01-09T00:25:25.150Z,85.50
2024-01-09T00:25:34.380Z,90.30
2024-01-09T00:25:44.405Z,84.50
2024-01-09T00:26:04.354Z,97.60
2024-01-09T00:26:14.366Z,96.40
2024-01-09T00:26:24.378Z,87.80
2024-01-09T00:26:34.361Z,82.00
2024-01-09T00:26:44.403Z,87.50
2024-01-09T00:26:54.541Z,89.60
2024-01-09T00:27:14.372Z,74.90
2024-01-09T00:27:24.354Z,77.40
2024-01-09T00:27:34.360Z,80.60
2024-01-09T00:27:44.414Z,90.70
2024-01-09T00:27:54.368Z,92.60
2024-01-09T00:28:04.374Z,99.70
2024-01-09T00:28:24.363Z,91.00
2024-01-09T00:28:34.351Z,81.40
2024-01-09T00:28:44.344Z,80.20
2024-01-09T00:28:54.543Z,82.40
2024-01-09T00:29:04.456Z,85.60
2024-01-09T00:29:14.441Z,84.00
2024-01-09T00:29:24.369Z,88.40
2024-01-09T00:29:44.375Z,92.90
2024-01-09T00:29:54.394Z,86.00
2024-01-09T00:30:04.423Z,81.80
2024-01-09T00:30:14.464Z,79.40
2024-01-09T00:30:24.415Z,76.70
2024-01-09T00:30:34.381Z,84.00
2024-01-09T00:30:54.451Z,93.50
2024-01-09T00:31:04.396Z,92.70
2024-01-09T00:31:14.326Z,93.20
2024-01-09T00:31:24.328Z,91.70
2024-01-09T00:31:34.398Z,87.20
2024-01-09T00:31:44.347Z,85.60
2024-01-09T00:32:06.057Z,86.30
2024-01-09T00:32:14.488Z,86.40
2024-01-09T00:32:24.388Z,95.10
2024-01-09T00:32:34.461Z,97.00
2024-01-09T00:32:44.407Z,95.50
2024-01-09T00:32:54.779Z,86.00
2024-01-09T00:33:14.536Z,88.10
2024-01-09T00:33:24.569Z,88.30
2024-01-09T00:33:34.426Z,83.70
2024-01-09T00:33:44.463Z,83.30
2024-01-09T00:33:54.416Z,81.10
2024-01-09T00:34:04.382Z,84.60
2024-01-09T00:34:25.251Z,86.00
2024-01-09T00:34:34.414Z,82.90
2024-01-09T00:34:44.403Z,77.90
2024-01-09T00:34:54.328Z,82.60
2024-01-09T00:35:04.334Z,83.00
2024-01-09T00:35:14.411Z,88.50
2024-01-09T00:35:34.353Z,85.00
2024-01-09T00:35:44.414Z,78.60
2024-01-09T00:35:54.372Z,84.50
2024-01-09T00:36:04.432Z,81.40
2024-01-09T00:36:14.343Z,83.30
2024-01-09T00:36:24.377Z,84.90
2024-01-09T00:36:44.372Z,79.80
2024-01-09T00:36:54.317Z,77.00
2024-01-09T00:37:04.322Z,82.60
2024-01-09T00:37:14.318Z,90.00
2024-01-09T00:37:24.333Z,92.10
2024-01-09T00:37:34.329Z,96.20
2024-01-09T00:37:54.331Z,95.80
2024-01-09T00:38:04.307Z,90.80
2024-01-09T00:38:14.432Z,82.20
2024-01-09T00:38:24.394Z,85.20
2024-01-09T00:38:34.358Z,88.30
2024-01-09T00:38:44.366Z,93.70
2024-01-09T00:38:54.488Z,93.70
2024-01-09T00:39:04.322Z,93.30
2024-01-09T00:39:24.319Z,88.10
2024-01-09T00:39:34.298Z,87.50
2024-01-09T00:39:44.308Z,87.70
2024-01-09T00:39:54.314Z,86.20
2024-01-09T00:40:04.324Z,84.30
2024-01-09T00:40:14.293Z,76.50
2024-01-09T00:40:34.305Z,80.10
2024-01-09T00:40:44.294Z,87.10
2024-01-09T00:40:54.291Z,90.00
2024-01-09T00:41:04.444Z,89.10
2024-01-09T00:41:14.359Z,89.80
2024-01-09T00:41:24.382Z,89.60
2024-01-09T00:41:34.474Z,89.40
2024-01-09T00:41:44.355Z,87.60
2024-01-09T00:41:54.323Z,88.20
2024-01-09T00:42:14.288Z,95.80
2024-01-09T00:42:24.298Z,101.10
2024-01-09T00:42:34.302Z,107.10
2024-01-09T00:42:44.351Z,105.90
2024-01-09T00:42:54.328Z,97.80
2024-01-09T00:43:04.322Z,90.20
2024-01-09T00:43:14.314Z,86.10
2024-01-09T00:43:24.322Z,83.90
2024-01-09T00:43:34.325Z,82.90
2024-01-09T00:43:54.303Z,87.50
2024-01-09T00:44:04.285Z,89.80
2024-01-09T00:44:14.327Z,94.00
2024-01-09T00:44:24.332Z,99.70
2024-01-09T00:44:34.310Z,99.00
2024-01-09T00:44:44.324Z,103.10
2024-01-09T00:44:54.320Z,91.80
2024-01-09T00:45:04.333Z,86.10
2024-01-09T00:45:24.301Z,90.30
2024-01-09T00:45:36.287Z,93.50
2024-01-09T00:45:44.335Z,91.20
2024-01-09T00:45:54.306Z,89.10
2024-01-09T00:46:04.277Z,91.60
2024-01-09T00:46:14.320Z,99.60
2024-01-09T00:46:24.367Z,107.90
2024-01-09T00:46:44.338Z,97.40
2024-01-09T00:46:54.363Z,83.90
2024-01-09T00:47:04.391Z,88.00
2024-01-09T00:47:14.328Z,92.50
2024-01-09T00:47:24.291Z,92.50
2024-01-09T00:47:34.310Z,86.40
2024-01-09T00:47:44.702Z,82.50
2024-01-09T00:48:04.553Z,89.30
2024-01-09T00:48:15.241Z,92.30
2024-01-09T00:48:24.590Z,86.90
2024-01-09T00:48:34.377Z,81.70
2024-01-09T00:48:44.627Z,75.10
2024-01-09T00:48:54.438Z,84.80
2024-01-09T00:49:04.358Z,84.30
2024-01-09T00:49:24.421Z,91.50
2024-01-09T00:49:34.318Z,90.70
2024-01-09T00:49:44.338Z,95.60
2024-01-09T00:49:54.288Z,89.30
2024-01-09T00:50:04.304Z,90.60
2024-01-09T00:50:14.326Z,92.20
2024-01-09T00:50:24.283Z,88.20
2024-01-09T00:50:35.240Z,89.00
2024-01-09T00:50:54.386Z,78.70
2024-01-09T00:51:04.316Z,78.00
2024-01-09T00:51:14.263Z,77.40
2024-01-09T00:51:24.257Z,89.50
2024-01-09T00:51:34.321Z,98.10
2024-01-09T00:51:44.262Z,100.70
2024-01-09T00:51:54.323Z,92.40
2024-01-09T00:52:14.344Z,84.40
2024-01-09T00:52:24.282Z,89.20
2024-01-09T00:52:34.258Z,85.60
2024-01-09T00:52:44.263Z,90.70
2024-01-09T00:52:54.253Z,90.60
2024-01-09T00:53:04.258Z,93.10
2024-01-09T00:53:24.303Z,90.00
2024-01-09T00:53:34.306Z,87.60
2024-01-09T00:53:44.295Z,90.00
2024-01-09T00:53:54.298Z,87.90
2024-01-09T00:54:04.272Z,87.90
2024-01-09T00:54:15.092Z,88.90
2024-01-09T00:54:34.258Z,91.30
2024-01-09T00:54:44.297Z,86.30
2024-01-09T00:54:54.253Z,85.70
2024-01-09T00:55:04.272Z,87.30
2024-01-09T00:55:14.257Z,91.40
2024-01-09T00:55:24.252Z,89.00
2024-01-09T00:55:44.256Z,93.50
2024-01-09T00:55:54.280Z,96.00
2024-01-09T00:56:04.266Z,92.40
2024-01-09T00:56:14.314Z,89.10
2024-01-09T00:56:24.299Z,88.80
2024-01-09T00:56:34.329Z,84.20
2024-01-09T00:56:44.325Z,85.90
2024-01-09T00:57:04.292Z,84.90
2024-01-09T00:57:14.253Z,84.10
2024-01-09T00:57:24.237Z,90.80
2024-01-09T00:57:34.270Z,92.80
2024-01-09T00:57:44.270Z,99.30
2024-01-09T00:57:54.289Z,102.00
2024-01-09T00:58:14.254Z,90.10
2024-01-09T00:58:24.248Z,86.30
2024-01-09T00:58:34.235Z,87.00
2024-01-09T00:58:44.232Z,88.10
2024-01-09T00:58:54.241Z,92.10
2024-01-09T00:59:04.268Z,95.90
2024-01-09T00:59:14.362Z,91.40
2024-01-09T00:59:24.247Z,89.40
2024-01-09T00:59:34.257Z,90.00
2024-01-09T00:59:55.198Z,96.40
2024-01-09T01:00:04.236Z,89.80
2024-01-09T01:00:14.287Z,87.30
2024-01-09T01:00:24.253Z,87.10
2024-01-09T01:00:34.283Z,87.70
2024-01-09T01:00:44.245Z,94.00
2024-01-09T01:01:04.313Z,92.50
2024-01-09T01:01:14.287Z,85.90
2024-01-09T01:01:24.273Z,91.90
2024-01-09T01:01:34.264Z,96.70
2024-01-09T01:01:44.226Z,94.60
2024-01-09T01:01:54.268Z,87.30
2024-01-09T01:02:04.243Z,79.20
2024-01-09T01:02:24.300Z,86.00
2024-01-09T01:02:34.291Z,93.90
2024-01-09T01:02:44.273Z,94.20
2024-01-09T01:02:54.407Z,95.40
2024-01-09T01:03:04.229Z,97.60
2024-01-09T01:03:14.274Z,99.40
2024-01-09T01:03:34.253Z,94.00
2024-01-09T01:03:44.245Z,88.30
2024-01-09T01:03:54.272Z,88.30
2024-01-09T01:04:04.325Z,84.50
2024-01-09T01:04:14.270Z,90.30
2024-01-09T01:04:24.265Z,93.30
2024-01-09T01:04:34.302Z,98.50
2024-01-09T01:04:44.278Z,98.30
2024-01-09T01:04:54.274Z,100.60
2024-01-09T01:05:15.172Z,92.80
2024-01-09T01:05:24.421Z,84.90
2024-01-09T01:05:34.417Z,85.80
2024-01-09T01:05:44.256Z,93.20
2024-01-09T01:05:54.422Z,94.60
2024-01-09T01:06:04.318Z,94.40
2024-01-09T01:06:24.264Z,95.30
2024-01-09T01:06:34.206Z,97.50
2024-01-09T01:06:44.235Z,104.40
2024-01-09T01:06:54.204Z,98.70
2024-01-09T01:07:04.252Z,90.80
2024-01-09T01:07:14.234Z,82.30
2024-01-09T01:07:24.239Z,86.30
2024-01-09T01:07:34.219Z,85.10
2024-01-09T01:07:44.230Z,91.00
2024-01-09T01:07:54.208Z,90.60
2024-01-09T01:08:14.257Z,88.50
2024-01-09T01:08:24.271Z,87.80
2024-01-09T01:08:35.153Z,86.40
2024-01-09T01:08:44.234Z,86.90
2024-01-09T01:08:54.232Z,89.60
2024-01-09T01:09:04.214Z,92.60
2024-01-09T01:09:15.083Z,96.30
2024-01-09T01:09:24.229Z,90.40
2024-01-09T01:09:44.309Z,90.30
2024-01-09T01:09:55.197Z,94.70
2024-01-09T01:10:04.216Z,100.30
2024-01-09T01:10:16.425Z,95.80
2024-01-09T01:10:24.218Z,98.20
2024-01-09T01:10:34.228Z,94.70
2024-01-09T01:10:44.229Z,88.10
2024-01-09T01:11:04.206Z,84.90
2024-01-09T01:11:14.285Z,97.60
2024-01-09T01:11:24.344Z,91.60
2024-01-09T01:11:34.282Z,105.30
2024-01-09T01:11:44.239Z,95.20
2024-01-09T01:11:54.245Z,96.10
2024-01-09T01:12:14.243Z,85.10
2024-01-09T01:12:24.375Z,80.30
2024-01-09T01:12:34.225Z,79.50
2024-01-09T01:12:45.058Z,81.80
2024-01-09T01:12:54.197Z,89.40
2024-01-09T01:13:04.228Z,91.10
2024-01-09T01:13:14.253Z,90.20
2024-01-09T01:13:34.197Z,92.40
2024-01-09T01:13:44.185Z,93.50
2024-01-09T01:13:54.190Z,87.20
2024-01-09T01:14:04.195Z,89.20
2024-01-09T01:14:14.244Z,92.60
2024-01-09T01:14:24.220Z,99.10
2024-01-09T01:14:34.239Z,96.80
2024-01-09T01:14:54.258Z,91.00
2024-01-09T01:15:04.351Z,95.20
2024-01-09T01:15:14.195Z,105.20
2024-01-09T01:15:24.216Z,109.00
2024-01-09T01:15:34.237Z,108.00
2024-01-09T01:15:44.177Z,102.80
2024-01-09T01:16:05.079Z,93.20
2024-01-09T01:16:14.174Z,93.40
2024-01-09T01:16:24.231Z,92.60
2024-01-09T01:16:34.173Z,92.90
2024-01-09T01:16:44.285Z,92.20
2024-01-09T01:16:54.185Z,89.50
2024-01-09T01:17:14.238Z,95.10
2024-01-09T01:17:24.326Z,99.60
2024-01-09T01:17:34.237Z,96.50
2024-01-09T01:17:44.274Z,101.10
2024-01-09T01:17:54.238Z,98.40
2024-01-09T01:18:04.327Z,90.40
2024-01-09T01:18:24.206Z,82.00
2024-01-09T01:18:34.241Z,81.80
2024-01-09T01:18:44.224Z,81.90
2024-01-09T01:18:54.254Z,89.20
2024-01-09T01:19:04.282Z,95.00
2024-01-09T01:19:14.184Z,103.50
2024-01-09T01:19:24.207Z,98.80
2024-01-09T01:19:34.234Z,102.50
2024-01-09T01:19:54.202Z,98.50
2024-01-09T01:20:04.176Z,92.00
2024-01-09T01:20:14.192Z,90.60
2024-01-09T01:20:24.199Z,89.70
2024-01-09T01:20:34.340Z,90.40
2024-01-09T01:20:44.276Z,94.10
2024-01-09T01:21:04.193Z,103.30
2024-01-09T01:21:14.172Z,106.60
2024-01-09T01:21:24.238Z,104.70
2024-01-09T01:21:34.172Z,97.20
2024-01-09T01:21:44.160Z,95.00
2024-01-09T01:21:54.186Z,98.10
2024-01-09T01:22:04.209Z,99.20
2024-01-09T01:22:24.217Z,86.90
2024-01-09T01:22:34.201Z,88.30
2024-01-09T01:22:44.165Z,90.80
2024-01-09T01:22:54.170Z,101.40
2024-01-09T01:23:04.159Z,94.90
2024-01-09T01:23:14.211Z,93.10
2024-01-09T01:23:34.245Z,83.60
2024-01-09T01:23:44.221Z,79.30
2024-01-09T01:23:54.229Z,80.10
2024-01-09T01:24:05.055Z,86.40
2024-01-09T01:24:14.151Z,95.20
2024-01-09T01:24:24.181Z,92.20
2024-01-09T01:24:34.194Z,95.30
2024-01-09T01:24:54.153Z,100.10
2024-01-09T01:25:04.147Z,96.20
2024-01-09T01:25:14.169Z,96.70
2024-01-09T01:25:24.224Z,90.40
2024-01-09T01:25:34.181Z,86.30
2024-01-09T01:25:44.168Z,92.50
2024-01-09T01:25:55.054Z,95.50
2024-01-09T01:26:14.247Z,94.70
2024-01-09T01:26:24.190Z,94.30
2024-01-09T01:26:34.170Z,93.00
2024-01-09T01:26:44.191Z,93.10
2024-01-09T01:26:54.195Z,92.30
2024-01-09T01:27:04.139Z,103.70
2024-01-09T01:27:24.202Z,111.30
2024-01-09T01:27:34.136Z,104.50
2024-01-09T01:27:44.174Z,95.70
2024-01-09T01:27:54.177Z,90.10
2024-01-09T01:28:04.125Z,91.30
2024-01-09T01:28:14.162Z,94.20
2024-01-09T01:28:34.143Z,94.50
2024-01-09T01:28:44.159Z,96.60
2024-01-09T01:28:54.127Z,93.50
2024-01-09T01:29:04.145Z,98.00
2024-01-09T01:29:14.147Z,97.10
2024-01-09T01:29:25.170Z,99.80
2024-01-09T01:29:44.192Z,98.00
2024-01-09T01:29:54.174Z,98.40
2024-01-09T01:30:04.230Z,89.40
2024-01-09T01:30:14.150Z,90.30
2024-01-09T01:30:24.190Z,92.20
2024-01-09T01:30:34.275Z,96.50
2024-01-09T01:30:44.281Z,106.30
2024-01-09T01:30:54.255Z,101.10
2024-01-09T01:31:04.304Z,98.60
2024-01-09T01:31:24.123Z,102.80
2024-01-09T01:31:35.078Z,105.20
2024-01-09T01:31:44.133Z,103.80
2024-01-09T01:31:54.135Z,94.30
2024-01-09T01:32:04.139Z,90.80
2024-01-09T01:32:14.138Z,89.70
2024-01-09T01:32:24.317Z,94.10
2024-01-09T01:32:44.278Z,93.60
2024-01-09T01:32:54.272Z,92.90
2024-01-09T01:33:04.192Z,97.80
2024-01-09T01:33:14.477Z,100.90
2024-01-09T01:33:24.300Z,109.10
2024-01-09T01:33:34.370Z,107.90
2024-01-09T01:33:54.254Z,94.50
2024-01-09T01:34:04.238Z,95.70
2024-01-09T01:34:14.281Z,95.80
2024-01-09T01:34:24.186Z,90.10
2024-01-09T01:34:34.160Z,87.30
2024-01-09T01:34:44.232Z,93.10
2024-01-09T01:34:55.062Z,101.30
2024-01-09T01:35:04.134Z,95.20
2024-01-09T01:35:24.192Z,90.70
2024-01-09T01:35:34.216Z,94.50
2024-01-09T01:35:44.177Z,97.70
2024-01-09T01:35:54.178Z,94.90
2024-01-09T01:36:04.102Z,99.20
2024-01-09T01:36:14.117Z,97.40
2024-01-09T01:36:34.116Z,99.90
2024-01-09T01:36:44.118Z,100.40
2024-01-09T01:36:54.105Z,95.70
2024-01-09T01:37:04.108Z,96.10
2024-01-09T01:37:14.115Z,99.10
2024-01-09T01:37:24.159Z,95.30
2024-01-09T01:37:44.141Z,97.50
2024-01-09T01:37:54.174Z,100.00
2024-01-09T01:38:04.128Z,99.20
2024-01-09T01:38:14.109Z,95.50
2024-01-09T01:38:24.275Z,100.60
2024-01-09T01:38:34.126Z,109.40
2024-01-09T01:38:54.155Z,103.00
2024-01-09T01:39:04.128Z,96.80
2024-01-09T01:39:14.171Z,95.30
2024-01-09T01:39:24.112Z,106.90
2024-01-09T01:39:34.116Z,105.80
2024-01-09T01:39:44.113Z,102.80
2024-01-09T01:39:55.204Z,94.30
2024-01-09T01:40:14.107Z,98.70
2024-01-09T01:40:24.107Z,103.60
2024-01-09T01:40:34.109Z,101.40
2024-01-09T01:40:44.090Z,102.10
2024-01-09T01:40:54.101Z,100.50
2024-01-09T01:41:04.112Z,102.10
2024-01-09T01:41:24.112Z,96.10
2024-01-09T01:41:34.187Z,102.10
2024-01-09T01:41:44.128Z,101.80
2024-01-09T01:41:54.153Z,103.80
2024-01-09T01:42:05.773Z,99.80
2024-01-09T01:42:14.086Z,100.50
2024-01-09T01:42:34.144Z,100.50
2024-01-09T01:42:44.099Z,105.00
2024-01-09T01:42:54.097Z,103.40
2024-01-09T01:43:04.139Z,94.40
2024-01-09T01:43:14.178Z,92.70
2024-01-09T01:43:24.082Z,100.40
2024-01-09T01:43:44.072Z,98.20
2024-01-09T01:43:54.084Z,93.60
2024-01-09T01:44:04.126Z,104.20
2024-01-09T01:44:14.112Z,106.50
2024-01-09T01:44:24.164Z,106.90
2024-01-09T01:44:34.143Z,102.00
2024-01-09T01:44:54.174Z,103.40
2024-01-09T01:45:04.077Z,105.70
2024-01-09T01:45:14.083Z,107.90
2024-01-09T01:45:24.089Z,100.50
2024-01-09T01:45:34.081Z,96.20
2024-01-09T01:45:44.078Z,97.60
2024-01-09T01:46:04.109Z,103.00
2024-01-09T01:46:14.182Z,93.80
2024-01-09T01:46:24.096Z,93.80
2024-01-09T01:46:35.080Z,92.20
2024-01-09T01:46:44.084Z,91.00
2024-01-09T01:46:54.076Z,91.60
2024-01-09T01:47:14.129Z,92.60
2024-01-09T01:47:24.069Z,89.10
2024-01-09T01:47:34.169Z,93.10
2024-01-09T01:47:44.197Z,92.10
2024-01-09T01:47:54.222Z,95.90
2024-01-09T01:48:04.394Z,95.20
2024-01-09T01:48:24.339Z,98.50
2024-01-09T01:48:34.391Z,99.50
2024-01-09T01:48:44.198Z,96.50
2024-01-09T01:48:55.132Z,97.50
2024-01-09T01:49:04.152Z,96.10
2024-01-09T01:49:14.325Z,101.20
2024-01-09T01:49:34.091Z,97.40
2024-01-09T01:49:44.074Z,93.60
2024-01-09T01:49:54.076Z,93.50
2024-01-09T01:50:04.073Z,102.60
2024-01-09T01:50:14.106Z,109.50
2024-01-09T01:50:24.158Z,112.60
2024-01-09T01:50:34.110Z,109.30
2024-01-09T01:50:54.106Z,100.60
2024-01-09T01:51:04.054Z,96.30
2024-01-09T01:51:14.571Z,93.90
2024-01-09T01:51:24.059Z,89.80
2024-01-09T01:51:34.109Z,96.50
2024-01-09T01:51:44.113Z,106.50
2024-01-09T01:51:54.059Z,116.00
2024-01-09T01:52:04.065Z,105.80
2024-01-09T01:52:24.110Z,92.40
2024-01-09T01:52:34.074Z,96.20
2024-01-09T01:52:44.058Z,97.80
2024-01-09T01:52:54.059Z,99.00
2024-01-09T01:53:04.094Z,100.20
2024-01-09T01:53:14.085Z,100.30
2024-01-09T01:53:24.770Z,96.10
2024-01-09T01:53:35.104Z,104.10
2024-01-09T01:53:54.121Z,109.10
2024-01-09T01:54:04.081Z,102.60
2024-01-09T01:54:14.047Z,108.10
2024-01-09T01:54:24.150Z,107.10
2024-01-09T01:54:34.106Z,102.90
2024-01-09T01:54:44.064Z,100.00
2024-01-09T01:54:54.072Z,101.90
2024-01-09T01:55:04.104Z,108.30
2024-01-09T01:55:24.078Z,101.90
2024-01-09T01:55:34.038Z,99.90
2024-01-09T01:55:44.169Z,98.20
2024-01-09T01:55:54.071Z,101.50
2024-01-09T01:56:04.048Z,99.50
2024-01-09T01:56:14.075Z,104.20
2024-01-09T01:56:36.622Z,105.90
2024-01-09T01:56:44.085Z,100.20
2024-01-09T01:56:54.078Z,91.70
2024-01-09T01:57:04.036Z,93.20
2024-01-09T01:57:14.107Z,96.90
2024-01-09T01:57:24.091Z,102.70
2024-01-09T01:57:44.157Z,98.90
2024-01-09T01:57:54.033Z,94.70
2024-01-09T01:58:04.035Z,93.70
2024-01-09T01:58:14.082Z,95.10
2024-01-09T01:58:24.059Z,99.10
2024-01-09T01:58:34.068Z,90.50
2024-01-09T01:58:44.183Z,88.50
2024-01-09T01:59:04.059Z,94.80
2024-01-09T01:59:14.055Z,100.40
2024-01-09T01:59:24.113Z,101.40
2024-01-09T01:59:34.062Z,100.30
2024-01-09T01:59:44.094Z,95.80
2024-01-09T01:59:54.055Z,90.00
2024-01-09T02:00:14.040Z,94.70
2024-01-09T02:00:24.030Z,94.10
2024-01-09T02:00:34.050Z,95.80
2024-01-09T02:00:44.130Z,92.50
2024-01-09T02:00:54.045Z,94.00
2024-01-09T02:01:04.090Z,91.00
2024-01-09T02:01:14.063Z,94.60
2024-01-09T02:01:24.086Z,94.10
2024-01-09T02:01:44.607Z,104.00
2024-01-09T02:01:54.013Z,104.10
2024-01-09T02:02:04.033Z,105.00
2024-01-09T02:02:14.063Z,91.80
2024-01-09T02:02:24.058Z,91.00
2024-01-09T02:02:34.152Z,90.80
2024-01-09T02:02:54.172Z,97.50
2024-01-09T02:03:04.088Z,100.70
2024-01-09T02:03:14.059Z,99.90
2024-01-09T02:03:24.116Z,97.10
2024-01-09T02:03:34.114Z,90.30
2024-01-09T02:03:44.023Z,91.20
2024-01-09T02:03:54.263Z,95.10
2024-01-09T02:04:04.099Z,103.60
2024-01-09T02:04:24.101Z,103.30
2024-01-09T02:04:34.045Z,103.00
2024-01-09T02:04:46.728Z,101.30
2024-01-09T02:04:54.561Z,104.30
2024-01-09T02:05:04.116Z,99.50
2024-01-09T02:05:14.084Z,99.70
2024-01-09T02:05:34.105Z,98.30
2024-01-09T02:05:44.133Z,98.50
2024-01-09T02:05:54.102Z,105.60
2024-01-09T02:06:04.084Z,101.20
2024-01-09T02:06:14.131Z,95.50
2024-01-09T02:06:24.074Z,96.20
2024-01-09T02:06:44.017Z,106.90
2024-01-09T02:06:54.614Z,103.10
2024-01-09T02:07:04.063Z,104.30
2024-01-09T02:07:14.023Z,98.20
2024-01-09T02:07:24.062Z,99.50
2024-01-09T02:07:33.997Z,100.40
2024-01-09T02:07:54.562Z,103.40
2024-01-09T02:08:03.994Z,99.60
2024-01-09T02:08:14.061Z,97.30
2024-01-09T02:08:24.010Z,97.80
2024-01-09T02:08:34.071Z,102.10
2024-01-09T02:08:44.037Z,101.90
2024-01-09T02:09:04.064Z,98.50
2024-01-09T02:09:14.106Z,101.20
2024-01-09T02:09:24.011Z,98.30
2024-01-09T02:09:34.011Z,96.30
2024-01-09T02:09:44.001Z,98.80
2024-01-09T02:09:54.000Z,96.60
2024-01-09T02:10:13.998Z,94.30
2024-01-09T02:10:24.013Z,97.50
2024-01-09T02:10:33.989Z,100.70
2024-01-09T02:10:44.560Z,96.20
2024-01-09T02:10:54.009Z,98.50
2024-01-09T02:11:04.101Z,97.20
2024-01-09T02:11:14.076Z,102.00
2024-01-09T02:11:34.041Z,94.80
2024-01-09T02:11:44.070Z,94.70
2024-01-09T02:11:54.063Z,93.60
2024-01-09T02:12:03.986Z,105.10
2024-01-09T02:12:13.992Z,100.30
2024-01-09T02:12:23.999Z,102.90
2024-01-09T02:12:33.997Z,96.80
2024-01-09T02:12:53.998Z,98.80
2024-01-09T02:13:03.999Z,99.70
2024-01-09T02:13:13.989Z,104.80
2024-01-09T02:13:24.059Z,105.50
2024-01-09T02:13:33.982Z,102.80
2024-01-09T02:13:44.146Z,96.30
2024-01-09T02:14:04.043Z,102.30
2024-01-09T02:14:14.068Z,103.50
2024-01-09T02:14:24.042Z,101.80
2024-01-09T02:14:34.056Z,101.60
2024-01-09T02:14:44.018Z,103.90
2024-01-09T02:14:54.133Z,103.10
2024-01-09T02:15:14.008Z,102.20
2024-01-09T02:15:24.716Z,94.10
2024-01-09T02:15:34.013Z,93.90
2024-01-09T02:15:43.999Z,95.30
2024-01-09T02:15:53.981Z,103.20
2024-01-09T02:16:04.099Z,97.90
2024-01-09T02:16:13.986Z,95.30
2024-01-09T02:16:33.986Z,102.90
2024-01-09T02:16:44.013Z,109.40
2024-01-09T02:16:53.969Z,106.00
2024-01-09T02:17:03.981Z,103.40
2024-01-09T02:17:14.053Z,94.40
2024-01-09T02:17:24.120Z,98.50
2024-01-09T02:17:34.124Z,100.20
2024-01-09T02:17:54.011Z,104.70
2024-01-09T02:18:04.090Z,107.30
2024-01-09T02:18:14.064Z,113.20
2024-01-09T02:18:24.164Z,111.50
2024-01-09T02:18:34.003Z,107.00
2024-01-09T02:18:44.640Z,106.50
2024-01-09T02:18:54.048Z,111.30
2024-01-09T02:19:04.037Z,109.70
2024-01-09T02:19:24.055Z,98.10
2024-01-09T02:19:34.034Z,100.00
2024-01-09T02:19:44.091Z,109.90
2024-01-09T02:19:54.027Z,110.80
2024-01-09T02:20:04.066Z,109.50
2024-01-09T02:20:14.060Z,97.60
2024-01-09T02:20:34.058Z,104.40
2024-01-09T02:20:44.051Z,103.40
2024-01-09T02:20:54.147Z,100.60
2024-01-09T02:21:04.034Z,98.20
2024-01-09T02:21:13.997Z,109.50
2024-01-09T02:21:24.032Z,112.10
2024-01-09T02:21:34.559Z,112.20
2024-01-09T02:21:53.995Z,106.70
2024-01-09T02:22:03.976Z,109.70
2024-01-09T02:22:13.966Z,102.30
2024-01-09T02:22:24.011Z,104.30
2024-01-09T02:22:34.012Z,103.40
2024-01-09T02:22:43.988Z,99.90
2024-01-09T02:23:03.969Z,98.30
2024-01-09T02:23:14.033Z,108.00
2024-01-09T02:23:24.040Z,115.00
2024-01-09T02:23:33.972Z,120.90
2024-01-09T02:23:44.003Z,109.60
2024-01-09T02:23:54.004Z,100.70
2024-01-09T02:24:03.998Z,100.10
2024-01-09T02:24:13.961Z,104.20
2024-01-09T02:24:23.982Z,107.00
2024-01-09T02:24:34.985Z,99.90
2024-01-09T02:24:53.982Z,99.20
2024-01-09T02:25:03.980Z,95.80
2024-01-09T02:25:13.966Z,97.80
2024-01-09T02:25:23.984Z,99.80
2024-01-09T02:25:33.978Z,105.10
2024-01-09T02:25:43.957Z,103.40
2024-01-09T02:25:56.050Z,105.50
2024-01-09T02:26:39.640Z,110.30
2024-01-09T02:26:54.539Z,107.50
2024-01-09T02:27:04.142Z,100.80
2024-01-09T02:27:05.537Z,103.20
2024-01-09T02:27:24.015Z,107.10